Time;durP1;ratioP1;P1;durP2;ratioP2;P2;SDS_P1;SDS_P2;PMS_P1;PMS_P2;Temp;Humidity;BMP_temperature;BMP_pressure;BME280_temperature;BME280_humidity;BME280_pressure;Samples;Min_cycle;Max_cycle;Signal;HPM_P1;HPM_P2
2022/11/09 00:01:24;;;;;;;155.70;65.53;;;;;;;;;;5016705;28;20033;-75
2022/11/09 00:04:10;;;;;;;178.98;70.45;;;;;;;;;;5016100;28;20050;-76
2022/11/09 00:06:56;;;;;;;210.30;76.68;;;;;;;;;;5015955;28;20042;-77
2022/11/09 00:09:42;;;;;;;215.35;74.70;;;;;;;;;;5015925;28;20415;-78
2022/11/09 00:12:27;;;;;;;159.82;68.38;;;;;;;;;;5017022;28;20479;-75
2022/11/09 00:15:13;;;;;;;230.77;74.20;;;;;;;;;;5007984;28;20403;-77
2022/11/09 00:18:02;;;;;;;193.00;70.95;;;;;;;;;;5015903;28;20049;-77
2022/11/09 00:20:49;;;;;;;194.07;75.70;;;;;;;;;;5016266;28;20475;-77
2022/11/09 00:23:38;;;;;;;208.68;68.97;;;;;;;;;;5015948;28;20495;-77
2022/11/09 00:26:23;;;;;;;150.52;60.92;;;;;;;;;;5016072;28;20042;-76
2022/11/09 00:29:09;;;;;;;185.98;70.75;;;;;;;;;;5015592;28;20394;-77
2022/11/09 00:31:54;;;;;;;177.07;69.05;;;;;;;;;;5021170;28;20045;-77
2022/11/09 00:34:40;;;;;;;250.48;75.55;;;;;;;;;;5021319;28;20049;-77
2022/11/09 00:37:29;;;;;;;186.27;65.55;;;;;;;;;;5015527;28;20049;-77
2022/11/09 00:40:17;;;;;;;166.13;65.40;;;;;;;;;;5010279;28;20046;-77
2022/11/09 00:43:03;;;;;;;236.02;78.18;;;;;;;;;;5015658;28;20045;-77
2022/11/09 00:45:48;;;;;;;174.40;73.10;;;;;;;;;;5019754;28;20042;-77
2022/11/09 00:48:35;;;;;;;228.05;77.68;;;;;;;;;;5021048;28;20058;-77
2022/11/09 00:51:21;;;;;;;226.30;74.28;;;;;;;;;;5015360;28;20041;-77
2022/11/09 00:54:07;;;;;;;205.23;82.03;;;;;;;;;;5020822;28;20038;-77
2022/11/09 00:56:52;;;;;;;193.40;77.85;;;;;;;;;;5015555;28;20488;-77
2022/11/09 00:59:38;;;;;;;173.75;57.42;;;;;;;;;;5020756;28;20041;-77
2022/11/09 01:02:24;;;;;;;168.30;53.05;;;;;;;;;;5015402;28;20480;-77
2022/11/09 01:05:09;;;;;;;189.68;56.10;;;;;;;;;;5006825;28;20388;-76
2022/11/09 01:07:55;;;;;;;162.43;51.20;;;;;;;;;;5014612;28;20041;-77
2022/11/09 01:10:42;;;;;;;196.32;54.78;;;;;;;;;;5014970;28;20045;-76
2022/11/09 01:13:28;;;;;;;149.13;55.20;;;;;;;;;;5020361;28;20089;-77
2022/11/09 01:16:17;;;;;;;145.80;53.08;;;;;;;;;;5015227;28;20041;-76
2022/11/09 01:19:03;;;;;;;196.73;73.65;;;;;;;;;;5019944;28;20495;-76
2022/11/09 01:21:48;;;;;;;124.43;45.28;;;;;;;;;;5017951;28;20038;-76
2022/11/09 01:24:33;;;;;;;170.35;57.30;;;;;;;;;;5014710;28;20045;-77
2022/11/09 01:27:19;;;;;;;124.40;44.63;;;;;;;;;;5014695;28;20038;-77
2022/11/09 01:30:05;;;;;;;126.85;40.75;;;;;;;;;;5020633;28;20037;-77
2022/11/09 01:32:52;;;;;;;89.25;39.85;;;;;;;;;;5020285;28;20046;-76
2022/11/09 01:35:42;;;;;;;116.85;47.53;;;;;;;;;;5020461;28;20042;-76
2022/11/09 01:38:27;;;;;;;148.30;50.65;;;;;;;;;;5014437;28;20395;-77
2022/11/09 01:41:19;;;;;;;112.70;46.47;;;;;;;;;;5014302;28;20042;-76
2022/11/09 01:44:18;;;;;;;109.80;45.45;;;;;;;;;;5014518;28;20037;-77
2022/11/09 01:47:11;;;;;;;117.65;42.53;;;;;;;;;;5014126;28;20046;-77
2022/11/09 01:49:59;;;;;;;127.25;41.58;;;;;;;;;;5020102;28;20495;-76
2022/11/09 01:52:47;;;;;;;125.53;42.05;;;;;;;;;;5014915;28;20384;-77
2022/11/09 01:55:32;;;;;;;130.40;42.17;;;;;;;;;;5020092;28;20049;-77
2022/11/09 01:58:24;;;;;;;109.70;38.08;;;;;;;;;;5019810;28;20046;-78
2022/11/09 02:01:13;;;;;;;91.47;36.63;;;;;;;;;;5014265;28;20491;-78
2022/11/09 02:04:07;;;;;;;86.35;33.13;;;;;;;;;;5021168;28;20038;-78
2022/11/09 02:06:54;;;;;;;90.53;33.17;;;;;;;;;;5020410;28;20050;-78
2022/11/09 02:09:48;;;;;;;80.38;31.30;;;;;;;;;;5014288;28;20050;-76
2022/11/09 02:12:34;;;;;;;75.50;33.70;;;;;;;;;;5020910;28;20046;-76
2022/11/09 02:15:21;;;;;;;74.68;30.23;;;;;;;;;;5014201;28;20042;-76
2022/11/09 02:18:07;;;;;;;55.85;21.13;;;;;;;;;;5013979;28;20046;-76
2022/11/09 02:20:54;;;;;;;51.08;18.85;;;;;;;;;;5019734;28;20046;-77
2022/11/09 02:23:41;;;;;;;51.63;18.13;;;;;;;;;;5014196;28;20046;-77
2022/11/09 02:26:34;;;;;;;41.45;16.48;;;;;;;;;;5019638;28;20042;-77
2022/11/09 02:29:25;;;;;;;60.40;21.23;;;;;;;;;;5019773;28;20034;-76
2022/11/09 02:32:19;;;;;;;82.78;25.00;;;;;;;;;;5022581;28;20061;-76
2022/11/09 02:35:05;;;;;;;84.10;26.85;;;;;;;;;;5024844;28;20515;-76
2022/11/09 02:37:50;;;;;;;52.72;24.83;;;;;;;;;;5023619;28;20049;-76
2022/11/09 02:40:39;;;;;;;69.68;24.27;;;;;;;;;;5023431;28;20042;-77
2022/11/09 02:43:26;;;;;;;57.13;21.73;;;;;;;;;;5023510;28;20042;-76
2022/11/09 02:46:11;;;;;;;64.45;23.15;;;;;;;;;;5021223;28;20484;-76
2022/11/09 02:48:57;;;;;;;55.28;21.33;;;;;;;;;;5023363;28;20488;-76
2022/11/09 02:51:42;;;;;;;56.70;20.70;;;;;;;;;;5023555;28;20046;-76
2022/11/09 02:54:28;;;;;;;58.05;19.02;;;;;;;;;;5024232;28;20046;-76
2022/11/09 02:57:14;;;;;;;49.50;19.38;;;;;;;;;;5023057;28;20042;-76
2022/11/09 03:00:00;;;;;;;61.13;19.70;;;;;;;;;;5023630;28;20034;-76
2022/11/09 03:02:46;;;;;;;53.90;19.33;;;;;;;;;;5023644;28;20046;-76
2022/11/09 03:05:32;;;;;;;40.92;17.92;;;;;;;;;;5023189;28;20046;-76
2022/11/09 03:08:18;;;;;;;39.63;18.67;;;;;;;;;;5022840;28;20042;-76
2022/11/09 03:11:05;;;;;;;31.60;16.63;;;;;;;;;;5022834;28;20049;-76
2022/11/09 03:13:51;;;;;;;40.33;16.23;;;;;;;;;;5022722;28;20046;-76
2022/11/09 03:16:37;;;;;;;61.85;18.75;;;;;;;;;;5023116;28;20046;-76
2022/11/09 03:19:24;;;;;;;44.58;16.25;;;;;;;;;;5022795;28;20042;-76
2022/11/09 03:22:11;;;;;;;30.27;14.70;;;;;;;;;;5023017;28;20050;-76
2022/11/09 03:24:56;;;;;;;32.40;14.40;;;;;;;;;;5017118;28;20034;-76
2022/11/09 03:27:42;;;;;;;651.53;294.98;;;;;;;;;;5022497;28;20488;-75
2022/11/09 03:30:28;;;;;;;52.78;28.42;;;;;;;;;;5023186;28;20041;-76
2022/11/09 03:33:13;;;;;;;50.47;24.30;;;;;;;;;;5022061;28;20033;-76
2022/11/09 03:36:00;;;;;;;321.00;200.48;;;;;;;;;;5022976;28;20042;-76
2022/11/09 03:38:46;;;;;;;50.15;21.20;;;;;;;;;;5022255;28;20042;-76
2022/11/09 03:41:32;;;;;;;33.58;17.83;;;;;;;;;;5022107;28;20045;-76
2022/11/09 03:44:18;;;;;;;35.08;16.23;;;;;;;;;;5022720;28;20046;-76
2022/11/09 03:47:04;;;;;;;44.30;17.00;;;;;;;;;;5016300;28;20041;-76
2022/11/09 03:49:49;;;;;;;43.22;18.08;;;;;;;;;;5016794;28;20080;-76
2022/11/09 03:52:35;;;;;;;39.83;16.67;;;;;;;;;;5016585;28;20045;-76
2022/11/09 03:55:21;;;;;;;34.13;16.45;;;;;;;;;;5016459;28;20045;-76
2022/11/09 03:58:09;;;;;;;49.63;17.23;;;;;;;;;;5016445;28;20049;-76
2022/11/09 04:00:54;;;;;;;37.17;16.88;;;;;;;;;;5016167;28;20045;-76
2022/11/09 04:03:40;;;;;;;48.55;16.73;;;;;;;;;;5016480;28;20050;-76
2022/11/09 04:06:25;;;;;;;40.85;19.23;;;;;;;;;;5022730;28;20041;-76
2022/11/09 04:09:11;;;;;;;35.38;17.20;;;;;;;;;;5022738;28;20049;-76
2022/11/09 04:11:56;;;;;;;46.90;18.55;;;;;;;;;;5016315;28;20480;-76
2022/11/09 04:14:42;;;;;;;47.25;20.42;;;;;;;;;;5019243;28;20476;-76
2022/11/09 04:17:27;;;;;;;47.38;18.33;;;;;;;;;;5016286;28;20054;-76
2022/11/09 04:20:13;;;;;;;35.30;15.93;;;;;;;;;;5015662;28;20480;-76
2022/11/09 04:23:02;;;;;;;38.53;16.02;;;;;;;;;;5016166;28;20049;-76
2022/11/09 04:25:47;;;;;;;35.78;16.25;;;;;;;;;;5021476;28;20046;-76
2022/11/09 04:28:37;;;;;;;50.03;19.73;;;;;;;;;;5015580;28;20045;-76
2022/11/09 04:31:22;;;;;;;40.28;17.92;;;;;;;;;;5015733;28;20046;-76
2022/11/09 04:34:08;;;;;;;37.85;17.65;;;;;;;;;;5022155;28;20046;-77
2022/11/09 04:36:54;;;;;;;38.22;17.63;;;;;;;;;;5015835;28;20041;-77
2022/11/09 04:39:39;;;;;;;49.47;17.75;;;;;;;;;;5016026;28;20046;-76
2022/11/09 04:42:25;;;;;;;51.08;18.55;;;;;;;;;;5022244;28;20501;-77
2022/11/09 04:45:10;;;;;;;48.72;16.55;;;;;;;;;;5015271;28;20046;-76
2022/11/09 04:48:00;;;;;;;34.33;17.20;;;;;;;;;;5015196;28;20045;-76
2022/11/09 04:50:46;;;;;;;37.95;15.80;;;;;;;;;;5015291;28;20038;-76
2022/11/09 04:53:32;;;;;;;47.45;15.68;;;;;;;;;;5013636;28;20046;-76
2022/11/09 04:56:17;;;;;;;34.00;14.70;;;;;;;;;;5021728;28;20038;-76
2022/11/09 04:59:02;;;;;;;28.33;14.35;;;;;;;;;;5021230;28;20037;-76
2022/11/09 05:01:48;;;;;;;38.35;15.88;;;;;;;;;;5015597;28;20046;-76
2022/11/09 05:04:33;;;;;;;32.08;16.60;;;;;;;;;;5015178;28;20042;-76
2022/11/09 05:07:19;;;;;;;34.10;16.80;;;;;;;;;;5021388;28;20049;-76
2022/11/09 05:10:04;;;;;;;39.67;15.60;;;;;;;;;;5015035;28;20046;-76
2022/11/09 05:12:49;;;;;;;31.92;16.30;;;;;;;;;;5020895;28;20053;-76
2022/11/09 05:15:35;;;;;;;32.53;16.35;;;;;;;;;;5015116;28;20046;-76
2022/11/09 05:18:20;;;;;;;29.85;14.50;;;;;;;;;;5014757;28;20045;-76
2022/11/09 05:21:06;;;;;;;26.25;13.38;;;;;;;;;;5014873;28;20045;-77
2022/11/09 05:23:57;;;;;;;38.08;15.35;;;;;;;;;;5021492;28;20045;-76
2022/11/09 05:26:42;;;;;;;31.83;12.63;;;;;;;;;;5014949;28;20503;-76
2022/11/09 05:29:28;;;;;;;19.77;11.70;;;;;;;;;;5015013;28;20050;-76
2022/11/09 05:32:13;;;;;;;34.83;15.32;;;;;;;;;;5015171;28;20050;-76
2022/11/09 05:34:59;;;;;;;25.70;12.95;;;;;;;;;;5014747;28;20050;-77
2022/11/09 05:37:48;;;;;;;31.15;13.90;;;;;;;;;;5014832;28;20042;-76
2022/11/09 05:40:33;;;;;;;31.30;17.40;;;;;;;;;;5024177;28;20050;-76
2022/11/09 05:43:20;;;;;;;29.67;13.27;;;;;;;;;;5014400;28;20034;-76
2022/11/09 05:46:05;;;;;;;32.72;14.27;;;;;;;;;;5019200;28;20050;-76
2022/11/09 05:48:51;;;;;;;35.92;13.90;;;;;;;;;;5013933;28;20041;-76
2022/11/09 05:51:36;;;;;;;43.80;19.77;;;;;;;;;;5014569;28;20042;-76
2022/11/09 05:54:23;;;;;;;34.15;20.35;;;;;;;;;;5013881;28;20052;-76
2022/11/09 05:57:08;;;;;;;31.60;17.40;;;;;;;;;;5014549;28;20050;-77
2022/11/09 05:59:54;;;;;;;31.60;16.35;;;;;;;;;;5014002;28;20045;-76
2022/11/09 06:02:40;;;;;;;45.05;16.33;;;;;;;;;;5014052;28;20057;-76
2022/11/09 06:05:26;;;;;;;30.05;15.60;;;;;;;;;;5013805;28;20042;-76
2022/11/09 06:08:13;;;;;;;34.97;16.75;;;;;;;;;;5014126;28;20064;-76
2022/11/09 06:11:01;;;;;;;31.10;16.90;;;;;;;;;;5013757;28;20054;-77
2022/11/09 06:13:48;;;;;;;43.10;19.38;;;;;;;;;;5019960;28;20053;-78
2022/11/09 06:16:32;;;;;;;31.48;15.18;;;;;;;;;;5013661;28;20046;-78
2022/11/09 06:19:17;;;;;;;24.58;15.27;;;;;;;;;;5020505;28;20042;-76
2022/11/09 06:22:03;;;;;;;29.30;15.38;;;;;;;;;;5013796;28;20041;-78
2022/11/09 06:24:48;;;;;;;33.92;17.23;;;;;;;;;;5013909;28;20042;-77
2022/11/09 06:27:34;;;;;;;32.55;18.40;;;;;;;;;;5020272;28;20046;-77
2022/11/09 06:30:19;;;;;;;26.70;15.75;;;;;;;;;;5012372;28;20046;-78
2022/11/09 06:33:05;;;;;;;38.63;18.38;;;;;;;;;;5012915;28;20046;-77
2022/11/09 06:35:51;;;;;;;26.30;15.48;;;;;;;;;;5014004;28;20046;-77
2022/11/09 06:38:36;;;;;;;34.70;16.90;;;;;;;;;;5013594;28;20054;-77
2022/11/09 06:41:22;;;;;;;46.83;23.20;;;;;;;;;;5013588;28;20049;-78
2022/11/09 06:44:08;;;;;;;39.55;22.17;;;;;;;;;;5013687;28;20495;-77
2022/11/09 06:46:54;;;;;;;36.85;19.40;;;;;;;;;;5015820;28;20491;-77
2022/11/09 06:49:38;;;;;;;41.33;21.50;;;;;;;;;;5013556;28;20054;-76
2022/11/09 06:52:24;;;;;;;36.58;19.65;;;;;;;;;;5020131;28;20433;-77
2022/11/09 06:55:10;;;;;;;41.03;20.95;;;;;;;;;;5013597;28;20395;-77
2022/11/09 06:57:56;;;;;;;50.38;22.75;;;;;;;;;;5013344;28;20042;-77
2022/11/09 07:00:42;;;;;;;55.83;19.52;;;;;;;;;;5013538;28;20506;-77
2022/11/09 07:03:27;;;;;;;56.25;25.50;;;;;;;;;;5013652;28;20049;-77
2022/11/09 07:06:14;;;;;;;36.47;20.55;;;;;;;;;;5016703;28;20038;-77
2022/11/09 07:08:59;;;;;;;38.08;19.20;;;;;;;;;;5019942;28;20508;-77
2022/11/09 07:11:47;;;;;;;60.67;21.58;;;;;;;;;;5020266;28;20383;-77
2022/11/09 07:14:32;;;;;;;43.65;19.70;;;;;;;;;;5013266;28;20049;-77
2022/11/09 07:17:17;;;;;;;35.42;18.30;;;;;;;;;;5020145;28;20042;-77
2022/11/09 07:20:04;;;;;;;52.13;19.00;;;;;;;;;;5017056;28;20391;-77
2022/11/09 07:22:50;;;;;;;47.15;18.70;;;;;;;;;;5017266;28;20038;-77
2022/11/09 07:25:35;;;;;;;43.33;19.45;;;;;;;;;;5022774;28;20042;-77
2022/11/09 07:28:20;;;;;;;44.72;20.23;;;;;;;;;;5022381;28;20058;-77
2022/11/09 07:31:06;;;;;;;54.55;20.08;;;;;;;;;;5023225;28;20041;-77
2022/11/09 07:33:51;;;;;;;47.83;21.23;;;;;;;;;;5023464;28;20050;-77
2022/11/09 07:36:37;;;;;;;51.15;23.17;;;;;;;;;;5017315;28;20038;-77
2022/11/09 07:39:22;;;;;;;48.28;19.58;;;;;;;;;;5016699;28;20046;-78
2022/11/09 07:42:08;;;;;;;50.78;22.38;;;;;;;;;;5017242;28;20045;-77
2022/11/09 07:44:54;;;;;;;48.58;22.38;;;;;;;;;;5022160;28;20037;-77
2022/11/09 07:47:40;;;;;;;42.47;21.17;;;;;;;;;;5015187;28;20046;-77
2022/11/09 07:50:27;;;;;;;43.95;21.88;;;;;;;;;;5026940;28;20053;-77
2022/11/09 07:53:14;;;;;;;40.95;19.17;;;;;;;;;;5016192;28;20038;-77
2022/11/09 07:56:01;;;;;;;42.00;19.33;;;;;;;;;;5016249;28;20050;-77
2022/11/09 07:58:49;;;;;;;37.08;18.15;;;;;;;;;;5016924;28;20403;-77
2022/11/09 08:01:35;;;;;;;40.35;21.33;;;;;;;;;;5022963;28;20049;-77
2022/11/09 08:04:21;;;;;;;48.65;21.67;;;;;;;;;;5016553;28;20396;-77
2022/11/09 08:07:06;;;;;;;52.33;23.27;;;;;;;;;;5022689;28;20046;-77
2022/11/09 08:09:51;;;;;;;47.25;24.02;;;;;;;;;;5022618;28;20042;-77
2022/11/09 08:12:37;;;;;;;44.33;22.63;;;;;;;;;;5016013;28;20395;-77
2022/11/09 08:15:24;;;;;;;47.03;21.65;;;;;;;;;;5016281;28;20038;-76
2022/11/09 08:18:16;;;;;;;39.35;19.90;;;;;;;;;;5016753;28;20049;-77
2022/11/09 08:21:02;;;;;;;41.08;20.23;;;;;;;;;;5016451;28;20038;-77
2022/11/09 08:23:49;;;;;;;45.85;21.55;;;;;;;;;;5015664;28;20042;-77
2022/11/09 08:26:34;;;;;;;45.97;21.65;;;;;;;;;;5016018;28;20392;-78
2022/11/09 08:29:19;;;;;;;46.67;21.52;;;;;;;;;;5014112;28;20407;-77
2022/11/09 08:32:05;;;;;;;46.05;21.35;;;;;;;;;;5018923;28;20042;-78
2022/11/09 08:34:51;;;;;;;56.53;22.63;;;;;;;;;;5016177;28;20057;-77
2022/11/09 08:37:37;;;;;;;47.15;21.77;;;;;;;;;;5022376;28;20041;-82
2022/11/09 08:40:25;;;;;;;55.97;28.60;;;;;;;;;;5015678;28;20050;-82
2022/11/09 08:43:10;;;;;;;43.38;22.05;;;;;;;;;;5016084;28;20483;-82
2022/11/09 08:45:57;;;;;;;47.30;23.85;;;;;;;;;;5015336;28;20046;-79
2022/11/09 08:48:42;;;;;;;46.65;22.65;;;;;;;;;;5022229;28;20046;-80
2022/11/09 08:51:27;;;;;;;42.58;21.63;;;;;;;;;;5016016;28;20046;-77
2022/11/09 08:54:14;;;;;;;41.10;20.83;;;;;;;;;;5022001;28;20045;-80
2022/11/09 08:56:58;;;;;;;66.07;32.95;;;;;;;;;;5015656;28;20049;-78
2022/11/09 08:59:45;;;;;;;72.25;36.50;;;;;;;;;;5015325;28;20488;-81
2022/11/09 09:02:31;;;;;;;40.20;21.25;;;;;;;;;;5015386;28;20046;-80
2022/11/09 09:05:17;;;;;;;40.83;20.98;;;;;;;;;;5015099;28;20124;-81
2022/11/09 09:08:04;;;;;;;67.05;34.78;;;;;;;;;;5015113;28;20507;-81
2022/11/09 09:10:50;;;;;;;159.15;69.35;;;;;;;;;;5015075;28;20046;-81
2022/11/09 09:13:35;;;;;;;201.90;103.25;;;;;;;;;;5015023;28;20495;-81
2022/11/09 09:16:21;;;;;;;96.72;45.75;;;;;;;;;;5022844;28;20045;-79
2022/11/09 09:19:06;;;;;;;44.53;24.23;;;;;;;;;;5015025;28;20045;-82
2022/11/09 09:21:52;;;;;;;46.22;24.90;;;;;;;;;;5015096;28;20484;-82
2022/11/09 09:24:37;;;;;;;40.67;23.58;;;;;;;;;;5015140;28;20066;-84
2022/11/09 09:27:23;;;;;;;49.67;25.83;;;;;;;;;;5015466;28;20046;-84
2022/11/09 09:30:09;;;;;;;47.25;25.98;;;;;;;;;;5015488;28;20054;-85
2022/11/09 09:33:00;;;;;;;39.40;23.58;;;;;;;;;;5015122;28;20415;-83
2022/11/09 09:35:46;;;;;;;38.38;23.50;;;;;;;;;;5014956;28;20042;-81
2022/11/09 09:38:31;;;;;;;42.08;23.80;;;;;;;;;;5015005;28;20396;-83
2022/11/09 09:41:22;;;;;;;38.47;23.55;;;;;;;;;;5014982;28;20045;-83
2022/11/09 09:44:15;;;;;;;41.50;24.02;;;;;;;;;;5007112;28;20407;-82
2022/11/09 09:47:09;;;;;;;35.40;19.55;;;;;;;;;;5014291;28;20479;-83
2022/11/09 09:50:13;;;;;;;41.83;21.40;;;;;;;;;;5015317;28;20042;-81
2022/11/09 09:53:10;;;;;;;38.00;20.77;;;;;;;;;;5014931;28;20053;-82
2022/11/09 09:56:03;;;;;;;35.10;21.08;;;;;;;;;;5014612;28;20391;-84
2022/11/09 09:58:56;;;;;;;44.72;24.05;;;;;;;;;;5021125;28;20061;-83
2022/11/09 10:01:43;;;;;;;40.50;24.30;;;;;;;;;;5020731;28;20392;-83
2022/11/09 10:04:36;;;;;;;38.42;22.65;;;;;;;;;;5014231;28;20199;-83
2022/11/09 10:07:55;;;;;;;36.42;20.38;;;;;;;;;;5014270;28;20045;-83
2022/11/09 10:10:48;;;;;;;32.65;20.10;;;;;;;;;;5014384;28;20467;-83
2022/11/09 10:13:55;;;;;;;34.10;20.77;;;;;;;;;;5014256;28;20042;-82
2022/11/09 10:16:53;;;;;;;34.47;20.52;;;;;;;;;;5014417;28;20483;-82
2022/11/09 10:20:07;;;;;;;33.58;20.60;;;;;;;;;;5013335;28;20045;-76
2022/11/09 10:23:08;;;;;;;50.00;25.95;;;;;;;;;;5013719;28;20054;-76
2022/11/09 10:26:02;;;;;;;46.58;25.23;;;;;;;;;;5014463;28;20050;-78
2022/11/09 10:28:54;;;;;;;39.25;22.98;;;;;;;;;;5013824;28;20395;-83
2022/11/09 10:31:42;;;;;;;40.53;21.55;;;;;;;;;;5015399;28;20391;-78
2022/11/09 10:34:39;;;;;;;45.47;23.75;;;;;;;;;;5015386;28;20495;-77
2022/11/09 10:37:37;;;;;;;42.40;24.25;;;;;;;;;;5017632;28;20050;-77
2022/11/09 10:40:33;;;;;;;46.67;26.17;;;;;;;;;;5015358;28;20050;-77
2022/11/09 10:43:37;;;;;;;43.65;23.98;;;;;;;;;;5013310;28;20034;-77
2022/11/09 10:47:12;;;;;;;42.25;24.75;;;;;;;;;;5013603;28;20046;-78
2022/11/09 10:50:29;;;;;;;41.70;22.55;;;;;;;;;;5013247;28;20038;-77
2022/11/09 10:53:33;;;;;;;45.47;26.00;;;;;;;;;;5016993;28;20042;-77
2022/11/09 10:56:44;;;;;;;42.50;26.20;;;;;;;;;;5017837;28;20041;-77
2022/11/09 10:59:49;;;;;;;43.80;24.08;;;;;;;;;;5017611;28;20042;-77
2022/11/09 11:02:54;;;;;;;49.08;29.00;;;;;;;;;;5018116;28;20046;-78
2022/11/09 11:06:05;;;;;;;42.53;20.25;;;;;;;;;;5017622;28;20034;-77
2022/11/09 11:09:10;;;;;;;39.33;25.27;;;;;;;;;;5017057;28;20041;-77
2022/11/09 11:12:16;;;;;;;49.00;27.52;;;;;;;;;;5017579;28;20042;-77
2022/11/09 11:15:38;;;;;;;47.90;27.08;;;;;;;;;;5017565;28;20050;-78
2022/11/09 11:18:46;;;;;;;45.63;23.38;;;;;;;;;;5017098;28;20042;-79
2022/11/09 11:22:21;;;;;;;42.75;24.15;;;;;;;;;;5016955;28;20038;-77
2022/11/09 11:25:25;;;;;;;45.67;26.73;;;;;;;;;;5017421;28;20042;-77
2022/11/09 11:28:39;;;;;;;46.63;27.38;;;;;;;;;;5016927;28;20038;-77
2022/11/09 11:31:43;;;;;;;43.22;27.15;;;;;;;;;;5017061;28;20399;-77
2022/11/09 11:34:48;;;;;;;44.30;26.73;;;;;;;;;;5016990;28;20042;-77
2022/11/09 11:37:59;;;;;;;47.70;25.88;;;;;;;;;;5016523;28;20042;-76
2022/11/09 11:41:41;;;;;;;46.83;26.42;;;;;;;;;;5016564;28;20042;-77
2022/11/09 11:45:06;;;;;;;45.15;28.38;;;;;;;;;;5016008;28;20042;-77
2022/11/09 11:48:20;;;;;;;44.50;26.08;;;;;;;;;;5016545;28;20038;-78
2022/11/09 11:51:39;;;;;;;44.47;25.75;;;;;;;;;;5016399;28;20046;-76
2022/11/09 11:55:06;;;;;;;47.05;26.30;;;;;;;;;;5016694;28;20054;-77
2022/11/09 11:58:12;;;;;;;;;;;;;;;;;;5016308;28;20049;-77
2022/11/09 12:01:23;;;;;;;40.67;24.67;;;;;;;;;;5016060;28;19913;-77
2022/11/09 12:04:46;;;;;;;42.15;24.10;;;;;;;;;;5015364;28;20488;-77
2022/11/09 12:08:18;;;;;;;41.28;24.70;;;;;;;;;;5019253;28;20050;-76
2022/11/09 12:11:26;;;;;;;43.30;25.50;;;;;;;;;;5016307;28;20387;-76
2022/11/09 12:14:47;;;;;;;42.47;25.35;;;;;;;;;;5016160;28;20050;-77
2022/11/09 12:18:28;;;;;;;39.85;24.73;;;;;;;;;;5015986;28;20050;-77
2022/11/09 12:21:42;;;;;;;42.30;25.10;;;;;;;;;;5015851;28;20053;-77
2022/11/09 12:24:56;;;;;;;44.70;25.38;;;;;;;;;;5016003;28;20042;-78
2022/11/09 12:28:15;;;;;;;39.00;24.30;;;;;;;;;;5015328;28;20050;-77
2022/11/09 12:31:42;;;;;;;38.17;24.75;;;;;;;;;;5015706;28;20057;-77
2022/11/09 12:35:06;;;;;;;37.65;23.70;;;;;;;;;;5015315;28;20403;-78
2022/11/09 12:38:14;;;;;;;43.42;24.70;;;;;;;;;;5015498;28;20491;-77
2022/11/09 12:41:22;;;;;;;37.17;23.42;;;;;;;;;;5015786;28;20046;-77
2022/11/09 12:44:32;;;;;;;43.92;24.48;;;;;;;;;;5015477;28;20038;-78
2022/11/09 12:47:40;;;;;;;46.97;24.92;;;;;;;;;;5014913;28;20042;-78
2022/11/09 12:50:44;;;;;;;39.28;24.27;;;;;;;;;;5019753;28;20045;-77
2022/11/09 12:53:48;;;;;;;42.10;23.60;;;;;;;;;;5028773;28;20034;-76
2022/11/09 12:57:06;;;;;;;42.47;24.23;;;;;;;;;;5028950;28;20042;-77
2022/11/09 13:00:32;;;;;;;46.08;26.02;;;;;;;;;;5029981;28;20050;-77
2022/11/09 13:03:49;;;;;;;38.50;23.23;;;;;;;;;;5022565;28;20050;-77
2022/11/09 13:07:02;;;;;;;36.85;23.98;;;;;;;;;;5020925;28;20038;-77
2022/11/09 13:10:33;;;;;;;38.30;23.83;;;;;;;;;;5024678;28;20045;-77
2022/11/09 13:13:38;;;;;;;40.85;26.50;;;;;;;;;;5026334;28;20042;-77
2022/11/09 13:16:43;;;;;;;39.77;24.87;;;;;;;;;;5025302;28;20034;-77
2022/11/09 13:19:48;;;;;;;44.90;26.20;;;;;;;;;;5015850;28;20645;-76
2022/11/09 13:22:52;;;;;;;42.50;25.23;;;;;;;;;;5016008;28;20038;-76
2022/11/09 13:25:56;;;;;;;43.53;27.05;;;;;;;;;;5016691;28;20396;-76
2022/11/09 13:29:25;;;;;;;44.03;24.90;;;;;;;;;;5015568;28;20042;-76
2022/11/09 13:32:32;;;;;;;40.72;25.50;;;;;;;;;;5019242;28;20037;-78
2022/11/09 13:35:39;;;;;;;47.83;25.05;;;;;;;;;;5017758;28;20038;-76
2022/11/09 13:38:43;;;;;;;49.45;26.40;;;;;;;;;;5014825;28;20038;-76
2022/11/09 13:41:47;;;;;;;45.22;26.67;;;;;;;;;;5018008;28;20042;-77
2022/11/09 13:44:52;;;;;;;42.63;25.58;;;;;;;;;;5023038;28;20038;-76
2022/11/09 13:47:56;;;;;;;40.40;25.02;;;;;;;;;;5017196;28;20046;-76
2022/11/09 13:51:08;;;;;;;47.07;24.97;;;;;;;;;;5014303;28;20396;-76
2022/11/09 13:54:35;;;;;;;44.92;25.95;;;;;;;;;;5018378;28;20038;-77
2022/11/09 13:57:39;;;;;;;42.72;26.15;;;;;;;;;;5015193;28;20050;-80
2022/11/09 14:00:46;;;;;;;41.75;26.00;;;;;;;;;;5014189;28;20396;-82
2022/11/09 14:03:51;;;;;;;44.40;25.33;;;;;;;;;;5013824;28;20038;-82
2022/11/09 14:07:10;;;;;;;45.25;26.25;;;;;;;;;;5014234;28;20038;-83
2022/11/09 14:10:17;;;;;;;44.15;26.75;;;;;;;;;;5106524;27;1401024;-82
2022/11/09 14:13:47;;;;;;;;;;;;;;;;;;5133862;28;20043;-79
2022/11/09 14:17:05;;;;;;;49.63;28.92;;;;;;;;;;5131319;28;19907;-80
2022/11/09 14:20:09;;;;;;;48.55;29.75;;;;;;;;;;5126600;28;20389;-78
2022/11/09 14:23:16;;;;;;;46.65;29.00;;;;;;;;;;5118526;28;20478;-78
2022/11/09 14:26:21;;;;;;;62.20;34.53;;;;;;;;;;5111061;28;20040;-79
2022/11/09 14:29:26;;;;;;;57.80;34.80;;;;;;;;;;5111682;28;20040;-79
2022/11/09 14:32:34;;;;;;;80.65;39.65;;;;;;;;;;5123720;28;20465;-81
2022/11/09 14:35:38;;;;;;;121.80;51.47;;;;;;;;;;5127785;27;20028;-81
2022/11/09 14:38:46;;;;;;;148.07;59.28;;;;;;;;;;5123706;28;20043;-83
2022/11/09 14:41:50;;;;;;;132.30;53.38;;;;;;;;;;5127636;28;20043;-81
2022/11/09 14:44:54;;;;;;;88.10;41.97;;;;;;;;;;5120106;27;20044;-81
2022/11/09 14:47:59;;;;;;;99.80;40.72;;;;;;;;;;5116398;28;20036;-82
2022/11/09 14:51:05;;;;;;;96.97;43.17;;;;;;;;;;5119278;28;20463;-81
2022/11/09 14:54:13;;;;;;;85.07;39.92;;;;;;;;;;5110233;28;20261;-80
2022/11/09 14:57:16;;;;;;;91.10;39.65;;;;;;;;;;5125787;28;20048;-81
2022/11/09 15:00:21;;;;;;;68.45;35.28;;;;;;;;;;5110765;28;20040;-80
2022/11/09 15:03:29;;;;;;;73.18;40.67;;;;;;;;;;5112394;28;20036;-80
2022/11/09 15:06:34;;;;;;;84.45;43.30;;;;;;;;;;5125584;27;20035;-82
2022/11/09 15:09:46;;;;;;;72.88;40.92;;;;;;;;;;5127296;27;20051;-82
2022/11/09 15:12:54;;;;;;;77.68;39.00;;;;;;;;;;5130236;28;20043;-81
2022/11/09 15:16:00;;;;;;;86.85;47.35;;;;;;;;;;5123884;28;20036;-81
2022/11/09 15:19:03;;;;;;;85.53;44.07;;;;;;;;;;5122803;27;20036;-81
2022/11/09 15:22:45;;;;;;;171.60;88.93;;;;;;;;;;5100722;28;20265;-80
2022/11/09 15:25:50;;;;;;;548.33;328.38;;;;;;;;;;5097103;28;20296;-80
2022/11/09 15:28:54;;;;;;;485.77;239.70;;;;;;;;;;5109482;28;20043;-80
2022/11/09 15:32:00;;;;;;;350.00;173.48;;;;;;;;;;5097780;28;20048;-81
2022/11/09 15:35:15;;;;;;;205.90;104.80;;;;;;;;;;5104564;28;20045;-80
2022/11/09 15:38:32;;;;;;;210.00;105.55;;;;;;;;;;5102448;28;20040;-80
2022/11/09 15:41:37;;;;;;;234.35;114.57;;;;;;;;;;5105006;28;20379;-82
2022/11/09 15:44:41;;;;;;;178.63;93.60;;;;;;;;;;5099021;28;20032;-82
2022/11/09 15:47:51;;;;;;;206.40;101.55;;;;;;;;;;5097054;28;20386;-80
2022/11/09 15:50:56;;;;;;;194.77;93.75;;;;;;;;;;5100297;28;20040;-81
2022/11/09 15:54:00;;;;;;;151.68;79.13;;;;;;;;;;5104969;28;20036;-80
2022/11/09 15:57:04;;;;;;;144.55;70.35;;;;;;;;;;5109977;28;20036;-81
2022/11/09 16:00:13;;;;;;;128.93;63.23;;;;;;;;;;5112000;28;20044;-80
2022/11/09 16:03:18;;;;;;;143.82;71.15;;;;;;;;;;5116364;28;20039;-80
2022/11/09 16:06:22;;;;;;;143.50;71.10;;;;;;;;;;5110614;28;20039;-80
2022/11/09 16:09:27;;;;;;;144.02;71.68;;;;;;;;;;5115927;28;20052;-82
2022/11/09 16:12:32;;;;;;;117.68;58.85;;;;;;;;;;5105928;28;20031;-81
2022/11/09 16:15:38;;;;;;;103.45;50.95;;;;;;;;;;5115883;28;20031;-81
2022/11/09 16:18:42;;;;;;;130.93;64.78;;;;;;;;;;5116785;28;20023;-79
2022/11/09 16:21:51;;;;;;;128.75;63.80;;;;;;;;;;5116946;28;20370;-80
2022/11/09 16:24:55;;;;;;;174.68;79.15;;;;;;;;;;5116265;28;20539;-79
2022/11/09 16:27:59;;;;;;;153.88;72.55;;;;;;;;;;5103697;28;20040;-81
2022/11/09 16:31:03;;;;;;;153.15;74.20;;;;;;;;;;5115931;28;20031;-82
2022/11/09 16:34:08;;;;;;;138.95;79.28;;;;;;;;;;5100314;28;20051;-81
2022/11/09 16:37:12;;;;;;;135.82;70.15;;;;;;;;;;5095853;28;20479;-80
2022/11/09 16:40:16;;;;;;;122.07;64.13;;;;;;;;;;5095624;28;20040;-81
2022/11/09 16:43:20;;;;;;;141.20;65.72;;;;;;;;;;5094965;28;20036;-79
2022/11/09 16:46:27;;;;;;;264.33;143.37;;;;;;;;;;5095324;28;20032;-80
2022/11/09 16:49:31;;;;;;;238.43;131.30;;;;;;;;;;5094863;28;20040;-79
2022/11/09 16:52:37;;;;;;;235.60;131.07;;;;;;;;;;5094932;28;20040;-83
2022/11/09 16:55:41;;;;;;;303.33;168.80;;;;;;;;;;5095523;28;20454;-79